May 16, 2022

Time Code Weather Temp. Visibility Clouds Wind METAR/SPECI
3:30 pm
V
81 °F 6¼ mi+ - 270°   270° 6 kt METAR LFCK 161330Z AUTO 27006KT 230V310 CAVOK 27/15 Q1019 NOSIG
3:00 pm
V
81 °F 6¼ mi+ - 260°   260° 5 kt METAR LFCK 161300Z AUTO 26005KT 220V290 CAVOK 27/14 Q1020 NOSIG
2:30 pm
V
81 °F 6¼ mi+ - 260°   260° 5 kt METAR LFCK 161230Z AUTO 26005KT 200V310 CAVOK 27/15 Q1020 NOSIG
2:00 pm
V
79 °F 6¼ mi+ - Var   Var 4 kt METAR LFCK 161200Z AUTO VRB04KT CAVOK 26/14 Q1020 NOSIG
1:30 pm
V
77 °F 6¼ mi+ - Var   Var 3 kt METAR LFCK 161130Z AUTO VRB03KT CAVOK 25/14 Q1020 NOSIG
1:00 pm
V
75 °F 6¼ mi+ - Var   Var 3 kt METAR LFCK 161100Z AUTO VRB03KT CAVOK 24/14 Q1021 NOSIG
12:30 pm
V
75 °F 6¼ mi+ - 240°   240° 4 kt METAR LFCK 161030Z AUTO 24004KT 160V300 CAVOK 24/13 Q1021 NOSIG
12:00 pm
V
73 °F 6¼ mi+ - 280°   280° 4 kt METAR LFCK 161000Z AUTO 28004KT 220V360 CAVOK 23/13 Q1021 NOSIG
11:30 am
V
72 °F 6¼ mi+ - 310°   310° 3 kt METAR LFCK 160930Z AUTO 31003KT 260V360 CAVOK 22/12 Q1021 NOSIG
11:00 am
V
72 °F 6¼ mi+ - Var   Var 3 kt METAR LFCK 160900Z AUTO VRB03KT CAVOK 22/13 Q1021 NOSIG
10:30 am
V
70 °F 6¼ mi+ - Var   Var 3 kt METAR LFCK 160830Z AUTO VRB03KT CAVOK 21/12 Q1021 NOSIG
10:00 am
V
70 °F 6¼ mi+ - Var   Var 1 kt METAR LFCK 160800Z AUTO VRB01KT CAVOK 21/12 Q1021 NOSIG
9:30 am
V
68 °F 6¼ mi+ - 170°   170° 3 kt METAR LFCK 160730Z AUTO 17003KT 110V200 CAVOK 20/13 Q1021 NOSIG
9:00 am
V
66 °F 6¼ mi+ - Var   Var 2 kt METAR LFCK 160700Z AUTO VRB02KT CAVOK 19/13 Q1020 NOSIG
8:30 am
V
64 °F 6¼ mi+ - Var   Var 1 kt METAR LFCK 160630Z AUTO VRB01KT CAVOK 18/12 Q1020 NOSIG
8:00 am
V
63 °F 6¼ mi+ - Var   Var 1 kt METAR LFCK 160600Z AUTO VRB01KT CAVOK 17/13 Q1020 NOSIG
7:30 am
V
59 °F 6¼ mi+ - 090°   090° 4 kt METAR LFCK 160530Z AUTO 09004KT CAVOK 15/12 Q1019
7:00 am
V
57 °F 6¼ mi+ - 120°   120° 4 kt METAR LFCK 160500Z AUTO 12004KT 070V140 CAVOK 14/11 Q1019
6:30 am
V
57 °F 6¼ mi+ - 110°   110° 7 kt METAR LFCK 160430Z AUTO 11007KT CAVOK 14/11 Q1019
6:00 am
V
55 °F 6¼ mi+ - Var   Var 2 kt METAR LFCK 160400Z AUTO VRB02KT CAVOK 13/10 Q1019
5:30 am
V
57 °F 6¼ mi+ - 100°   100° 2 kt METAR LFCK 160330Z AUTO 10002KT CAVOK 14/11 Q1019
5:00 am
V
57 °F 6¼ mi+ - Var   000° 0 kt METAR LFCK 160300Z AUTO 00000KT CAVOK 14/11 Q1019
4:30 am
V
59 °F 6¼ mi+ - 130°   130° 6 kt METAR LFCK 160230Z AUTO 13006KT CAVOK 15/12 Q1018
4:00 am
V
61 °F 6¼ mi+ - 190°   190° 6 kt METAR LFCK 160200Z AUTO 19006KT 150V220 CAVOK 16/12 Q1019
3:30 am
V
61 °F 6¼ mi+ - Var   Var 1 kt METAR LFCK 160130Z AUTO VRB01KT CAVOK 16/12 Q1019
3:00 am
V
61 °F 6¼ mi+ - 130°   130° 5 kt METAR LFCK 160100Z AUTO 13005KT 100V180 CAVOK 16/12 Q1018
2:30 am
V
63 °F 6¼ mi+ - 110°   110° 10 kt METAR LFCK 160030Z AUTO 11010KT CAVOK 17/11 Q1018
2:00 am
V
63 °F 6¼ mi+ - 110°   110° 14 kt METAR LFCK 160000Z AUTO 11014KT CAVOK 17/11 Q1017
1:30 am
V
63 °F 6¼ mi+ - 120°   120° 11 kt METAR LFCK 152330Z AUTO 12011KT CAVOK 17/10 Q1017
1:00 am
V
63 °F 6¼ mi+ - 140°   140° 10 kt METAR LFCK 152300Z AUTO 14010KT CAVOK 17/11 Q1018
12:30 am
V
63 °F 6¼ mi+ - 150°   150° 7 kt METAR LFCK 152230Z AUTO 15007KT CAVOK 17/11 Q1018
12:00 am
V
66 °F 6¼ mi+ - 110°   110° 7 kt METAR LFCK 152200Z AUTO 11007KT 060V140 CAVOK 19/10 Q1018

May 15, 2022

Time Code Weather Temp. Visibility Clouds Wind METAR/SPECI
11:30 pm
V
66 °F 6¼ mi+ - 120°   120° 19 kt METAR LFCK 152130Z AUTO 12019KT CAVOK 19/10 Q1015
11:00 pm
V
66 °F 6¼ mi+ - 110°   110° 24 kt METAR LFCK 152100Z AUTO 11024KT CAVOK 19/09 Q1015 BECMG 13012KT
10:30 pm
V
66 °F 6¼ mi+ - 110°   110° 19 kt METAR LFCK 152030Z AUTO 11019KT CAVOK 19/09 Q1015 TEMPO 11020G30KT
10:00 pm
V
68 °F 6¼ mi+ - 110°   110° 21 34 kt METAR LFCK 152000Z AUTO 11021G34KT CAVOK 20/10 Q1015 NOSIG
9:30 pm
V
68 °F 6¼ mi+ - 120°   120° 24 kt METAR LFCK 151930Z AUTO 12024KT CAVOK 20/10 Q1014 BECMG 11020G30KT
9:00 pm
V
68 °F 6¼ mi+ - 120°   120° 25 37 kt METAR LFCK 151900Z AUTO 12025G37KT CAVOK 20/11 Q1013 NOSIG
8:30 pm
V
70 °F 6¼ mi+ - 120°   120° 26 kt METAR LFCK 151830Z AUTO 12026KT CAVOK 21/11 Q1013 BECMG 11020G30KT
8:00 pm
V
72 °F 6¼ mi+ - 120°   120° 24 kt METAR LFCK 151800Z AUTO 12024KT CAVOK 22/12 Q1013 BECMG 11020G30KT
7:30 pm
V
73 °F 6¼ mi+ - 120°   120° 24 36 kt METAR LFCK 151730Z AUTO 12024G36KT CAVOK 23/12 Q1013 NOSIG
7:00 pm
V
75 °F 6¼ mi+ - 120°   120° 23 kt METAR LFCK 151700Z AUTO 12023KT CAVOK 24/12 Q1013 TEMPO FEW060CB BECMG 12020G30KT
6:30 pm
V
75 °F 6¼ mi+ - 110°   110° 21 32 kt METAR LFCK 151630Z AUTO 11021G32KT CAVOK 24/12 Q1013 TEMPO FEW060CB
6:00 pm
V
77 °F 6¼ mi+ - 110°   110° 23 34 kt METAR LFCK 151600Z AUTO 11023G34KT CAVOK 25/13 Q1013 TEMPO FEW060CB
5:30 pm
V
77 °F 6¼ mi+ - 110°   110° 24 kt METAR LFCK 151530Z AUTO 11024KT CAVOK 25/13 Q1014 TEMPO 14025G40KT FEW060CB
5:00 pm
V
77 °F 6¼ mi+ - 120°   120° 23 34 kt METAR LFCK 151500Z AUTO 12023G34KT CAVOK 25/13 Q1014 TEMPO FEW060CB
4:30 pm
V
77 °F 6¼ mi+ - 120°   120° 24 kt METAR LFCK 151430Z AUTO 12024KT CAVOK 25/13 Q1014 TEMPO 14025G40KT FEW060CB
4:00 pm
V
79 °F 6¼ mi+ - 110°   110° 23 34 kt METAR LFCK 151400Z AUTO 11023G34KT CAVOK 26/13 Q1014 TEMPO FEW060CB
3:30 pm
V
79 °F 6¼ mi+ - 110°   110° 19 kt METAR LFCK 151330Z AUTO 11019KT CAVOK 26/13 Q1015 TEMPO 14025G40KT FEW060CB
3:00 pm
V
79 °F 6¼ mi+ - 110°   110° 22 kt METAR LFCK 151300Z AUTO 11022KT CAVOK 26/14 Q1015 BECMG 12020G30KT
2:30 pm
V
79 °F 6¼ mi+ - 110°   110° 21 kt METAR LFCK 151230Z AUTO 11021KT CAVOK 26/13 Q1015 BECMG 12020G30KT
2:00 pm
V
79 °F 6¼ mi+ - 110°   110° 22 kt METAR LFCK 151200Z AUTO 11022KT CAVOK 26/13 Q1015 BECMG 12020G30KT
1:30 pm
V
77 °F 6¼ mi+ - 110°   110° 22 kt METAR LFCK 151130Z AUTO 11022KT CAVOK 25/13 Q1015 BECMG 12020G30KT
1:00 pm
V
77 °F 6¼ mi+ - 120°   120° 22 kt METAR LFCK 151100Z AUTO 12022KT CAVOK 25/13 Q1015 BECMG 12020G30KT
12:30 pm
V
77 °F 6¼ mi+ - 120°   120° 22 34 kt METAR LFCK 151030Z AUTO 12022G34KT CAVOK 25/13 Q1015 NOSIG
12:00 pm
V
75 °F 6¼ mi+ - 110°   110° 21 kt METAR LFCK 151000Z AUTO 11021KT CAVOK 24/13 Q1015 BECMG 12020G30KT
11:30 am
V
73 °F 6¼ mi+ - 120°   120° 22 kt METAR LFCK 150930Z AUTO 12022KT CAVOK 23/13 Q1016 BECMG 12020G30KT
11:00 am
V
72 °F 6¼ mi+ - 120°   120° 21 31 kt METAR LFCK 150900Z AUTO 12021G31KT 080V140 CAVOK 22/13 Q1016 NOSIG
10:30 am
V
72 °F 6¼ mi+ - 120°   120° 23 kt METAR LFCK 150830Z AUTO 12023KT CAVOK 22/13 Q1015 BECMG 12020G30KT
10:00 am
V
70 °F 6¼ mi+ - 120°   120° 23 kt METAR LFCK 150800Z AUTO 12023KT CAVOK 21/12 Q1015 BECMG 12022G32KT
9:30 am
V
68 °F 6¼ mi+ - 120°   120° 24 36 kt METAR LFCK 150730Z AUTO 12024G36KT CAVOK 20/12 Q1015 NOSIG
9:00 am
V
66 °F 6¼ mi+ - 120°   120° 26 36 kt METAR LFCK 150700Z AUTO 12026G36KT CAVOK 19/12 Q1015 NOSIG
8:30 am
V
66 °F 5⅝ mi - 120°   120° 25 37 kt METAR LFCK 150630Z AUTO 12025G37KT 9000 NSC 19/12 Q1015 NOSIG
8:00 am
V
64 °F 6¼ mi+ - 120°   120° 24 37 kt METAR LFCK 150600Z AUTO 12024G37KT CAVOK 18/12 Q1015 NOSIG
7:30 am
V
66 °F 6¼ mi+ - 130°   130° 23 36 kt METAR LFCK 150530Z AUTO 13023G36KT CAVOK 19/11 Q1014 NOSIG
7:00 am
V
64 °F 6¼ mi+ - 120°   120° 26 kt METAR LFCK 150500Z AUTO 12026KT CAVOK 18/11 Q1014
6:30 am
V
66 °F 6¼ mi+ - 120°   120° 27 38 kt METAR LFCK 150430Z AUTO 12027G38KT CAVOK 19/10 Q1014
6:00 am
V
66 °F 6¼ mi+ - 120°   120° 26 37 kt METAR LFCK 150400Z AUTO 12026G37KT CAVOK 19/09 Q1014
5:30 am
V
68 °F 6¼ mi+ - 120°   120° 25 kt METAR LFCK 150330Z AUTO 12025KT CAVOK 20/08 Q1014
5:00 am
V
68 °F 6¼ mi+ - 120°   120° 24 kt METAR LFCK 150300Z AUTO 12024KT CAVOK 20/08 Q1014
4:30 am
V
70 °F 6¼ mi+ - 130°   130° 22 kt METAR LFCK 150230Z AUTO 13022KT CAVOK 21/08 Q1014
4:00 am
V
70 °F 6¼ mi+ - 120°   120° 21 kt METAR LFCK 150200Z AUTO 12021KT CAVOK 21/10 Q1014
3:30 am
V
72 °F 6¼ mi+ - 130°   130° 19 kt METAR LFCK 150130Z AUTO 13019KT CAVOK 22/10 Q1015
3:00 am
V
72 °F 6¼ mi+ - 130°   130° 16 kt METAR LFCK 150100Z AUTO 13016KT CAVOK 22/10 Q1015
2:30 am
V
72 °F 6¼ mi+ - 130°   130° 19 kt METAR LFCK 150030Z AUTO 13019KT CAVOK 22/10 Q1015
2:00 am
V
72 °F 6¼ mi+ - 130°   130° 17 kt METAR LFCK 150000Z AUTO 13017KT CAVOK 22/11 Q1015
1:30 am
V
70 °F 6¼ mi+ - 130°   130° 14 kt METAR LFCK 142330Z AUTO 13014KT CAVOK 21/11 Q1016
1:00 am
V
70 °F 6¼ mi+ - 130°   130° 12 kt METAR LFCK 142300Z AUTO 13012KT CAVOK 21/11 Q1016
12:30 am
V
70 °F 6¼ mi+ - 130°   130° 11 kt METAR LFCK 142230Z AUTO 13011KT CAVOK 21/12 Q1017
12:00 am
V
70 °F 6¼ mi+ - 120°   120° 13 kt METAR LFCK 142200Z AUTO 12013KT CAVOK 21/13 Q1017

May 14, 2022

Time Code Weather Temp. Visibility Clouds Wind METAR/SPECI
11:30 pm
V
70 °F 6¼ mi+ - 110°   110° 10 kt METAR LFCK 142130Z AUTO 11010KT CAVOK 21/13 Q1017
11:00 pm
V
70 °F 6¼ mi+ - 090°   090° 4 kt METAR LFCK 142100Z AUTO 09004KT 040V130 CAVOK 21/13 Q1018 BECMG 12016G26KT
10:30 pm
V
72 °F 6¼ mi+ - 110°   110° 8 kt METAR LFCK 142030Z AUTO 11008KT CAVOK 22/13 Q1017 BECMG 12016G26KT
10:00 pm
V
72 °F 6¼ mi+ - 110°   110° 10 kt METAR LFCK 142000Z AUTO 11010KT CAVOK 22/13 Q1017 BECMG 12016G26KT
9:30 pm
V
72 °F 6¼ mi+ - 110°   110° 10 kt METAR LFCK 141930Z AUTO 11010KT CAVOK 22/12 Q1017 BECMG 12016G26KT
9:00 pm
V
73 °F 6¼ mi+ - 100°   100° 10 kt METAR LFCK 141900Z AUTO 10010KT CAVOK 23/12 Q1016 NOSIG
8:30 pm
V
75 °F 6¼ mi+ - 100°   100° 10 kt METAR LFCK 141830Z AUTO 10010KT CAVOK 24/13 Q1016 NOSIG
8:00 pm
V
75 °F 6¼ mi+ - 110°   110° 9 kt METAR LFCK 141800Z AUTO 11009KT CAVOK 24/12 Q1017 NOSIG
7:30 pm
V
77 °F 6¼ mi+ - 120°   120° 10 kt METAR LFCK 141730Z AUTO 12010KT CAVOK 25/12 Q1017 NOSIG
7:00 pm
V
81 °F 6¼ mi+ - 120°   120° 14 kt METAR LFCK 141700Z AUTO 12014KT CAVOK 27/13 Q1016 NOSIG
6:30 pm
V
81 °F 6¼ mi+ - 120°   120° 14 kt METAR LFCK 141630Z AUTO 12014KT CAVOK 27/13 Q1016 NOSIG
6:00 pm
V
84 °F 6¼ mi+ - 110°   110° 13 kt METAR LFCK 141600Z AUTO 11013KT CAVOK 29/12 Q1016 NOSIG
5:30 pm
V
86 °F 6¼ mi+ - 120°   120° 11 kt METAR LFCK 141530Z AUTO 12011KT 090V150 CAVOK 30/12 Q1016 NOSIG
5:00 pm
V
86 °F 6¼ mi+ - 120°   120° 12 kt METAR LFCK 141500Z AUTO 12012KT 080V150 9999 ///CB 30/13 Q1016 BECMG NSC
4:30 pm
V
86 °F 6¼ mi+ - 100°   100° 9 kt METAR LFCK 141430Z AUTO 10009KT 9999 ///CB 30/12 Q1017 BECMG NSC
4:00 pm
V
86 °F 6¼ mi+ - 140°   140° 8 kt METAR LFCK 141400Z AUTO 14008KT 9999 ///CB 30/12 Q1017 BECMG NSC
Older data

Download our app

Easy access to all aviation weather on your mobile phone and tablet.
With many features not available on the website, like offline support and a personal airport list.